Flight Track Log - Related Links

Times and Time Zones

All times are in EDT time to prevent confusion due to time zone crossing. See the SWA771 flight status page for this flight to view local times or setup timezone preferences in your user account.

Time Position Orientation Groundspeed Altitude Reporting Facility
EDT Latitude Longitude Course Direction KTS km/h feet Rate Location/Type
Sat 21:34:17 39.8167 -104.6667 186° South 161 298 6.700  Level Denver TRACON
Sat 21:35:03 39.7781 -104.6722 186° South 188 348 7.700 2.111 Climbing Denver Center
Sat 21:36:05 39.7106 -104.6947 194° South 228 422 10.500 2.244 Climbing Denver Center
Sat 21:37:06 39.6372 -104.6986 182° South 264 489 12.300 2.000 Climbing Denver Center
Sat 21:38:08 39.5408 -104.7064 184° South 345 639 14.600 2.634 Climbing Denver Center
Sat 21:39:09 39.4344 -104.7150 184° South 381 705 17.700 3.000 Climbing Denver Center
Sat 21:40:10 39.3256 -104.7706 202° Southwest 388 719 20.700 2.683 Climbing Denver Center
Sat 21:41:12 39.2528 -104.8719 227° Southwest 382 708 23.200 2.293 Climbing Denver Center
Sat 21:42:13 39.1844 -104.9894 233° Southwest 408 756 25.400 1.869 Climbing Denver Center
Sat 21:43:14 39.0986 -105.0922 223° Southwest 437 810 27.000 1.707 Climbing Denver Center
Sat 21:44:16 38.9706 -105.1719 206° Southwest 456 845 28.900 1.659 Climbing Denver Center
Sat 21:45:17 38.8592 -105.2425 206° Southwest 463 858 30.400 1.869 Climbing Denver Center
Sat 21:46:18 38.7236 -105.3278 206° Southwest 478 885 32.700 1.756 Climbing Denver Center
Sat 21:47:20 38.6092 -105.4014 207° Southwest 481 892 34.000 634 Climbing Denver Center
Sat 21:48:21 38.5014 -105.4831 211° Southwest 474 877 34.000  Level Denver Center
Sat 21:49:22 38.3964 -105.6075 223° Southwest 465 861 34.000 732 Level Denver Center
Sat 21:50:24 38.3042 -105.7158 223° Southwest 465 861 35.500 1.659 Climbing Denver Center
Sat 21:51:25 38.1989 -105.8392 223° Southwest 464 859 37.400 1.230 Climbing Denver Center
Sat 21:52:26 38.1089 -105.9442 223° Southwest 461 855 38.000 293 Climbing Denver Center
Sat 21:53:28 38.0200 -106.0483 223° Southwest 457 847 38.000  Level Denver Center
Sat 21:54:29 37.9153 -106.1694 222° Southwest 457 847 38.000  Level Denver Center
Sat 21:55:30 37.8264 -106.2725 222° Southwest 455 843 38.000  Level Denver Center
Sat 21:56:32 37.7228 -106.3897 222° Southwest 459 850 38.000  Level Denver Center
Sat 21:57:33 37.6336 -106.4942 223° Southwest 457 847 38.000  Level Denver Center
Sat 21:58:34 37.5283 -106.6156 222° Southwest 459 850 38.000  Level Denver Center
Sat 21:59:35 37.4378 -106.7192 222° Southwest 460 851 38.000  Level Denver Center
Sat 22:00:37 37.3461 -106.8203 221° Southwest 459 850 38.000  Level Denver Center
Sat 22:01:38 37.2414 -106.9406 222° Southwest 458 848 38.000  Level Denver Center
Sat 22:02:39 37.1514 -107.0428 222° Southwest 457 847 38.000  Level Denver Center
Sat 22:03:41 37.0608 -107.1444 222° Southwest 456 845 38.000  Level Denver Center
Sat 22:04:42 36.9550 -107.2642 222° Southwest 458 848 38.000  Level Denver Center
Sat 22:05:43 36.8628 -107.3642 221° Southwest 459 850 38.000  Level Denver Center
Sat 22:06:44 36.7575 -107.4828 222° Southwest 455 843 38.000  Level Denver Center
Sat 22:07:45 36.6650 -107.5839 221° Southwest 459 850 38.000  Level Denver Center
Sat 22:08:47 36.5739 -107.6858 222° Southwest 461 855 38.000  Level Denver Center
Sat 22:09:48 36.4656 -107.8053 222° Southwest 465 861 38.000  Level Denver Center
Sat 22:10:49 36.3725 -107.9067 221° Southwest 465 861 38.000  Level Denver Center
Sat 22:11:50 36.2797 -108.0086 222° Southwest 464 859 38.000  Level Denver Center
Sat 22:12:51 36.1706 -108.1267 221° Southwest 464 859 38.000  Level Denver Center
Sat 22:13:23 36.1239 -108.1792 222° Southwest 466 863 38.000  Level Albuquerque Center
Sat 22:14:24 36.0300 -108.2806 221° Southwest 466 863 38.000  Level Albuquerque Center
Sat 22:15:25 35.9194 -108.3997 221° Southwest 468 867 38.000  Level Albuquerque Center
Sat 22:16:26 35.8239 -108.5019 221° Southwest 470 871 38.000  Level Albuquerque Center
Sat 22:17:26 35.7281 -108.6056 221° Southwest 473 875 38.000  Level Albuquerque Center
Sat 22:18:27 35.6153 -108.7264 221° Southwest 477 884 38.000  Level Albuquerque Center
Sat 22:19:28 35.5189 -108.8283 221° Southwest 477 884 38.000 -443 Level Albuquerque Center
Sat 22:20:29 35.4258 -108.9364 223° Southwest 477 884 37.100 -984 Descending Albuquerque Center
Sat 22:21:30 35.3258 -109.0700 227° Southwest 474 877 36.000 -1.033 Descending Albuquerque Center
Sat 22:22:31 35.2375 -109.1858 227° Southwest 481 892 35.000 -942 Descending Albuquerque Center
Sat 22:23:31 35.1497 -109.2978 226° Southwest 478 885 34.100 -496 Descending Albuquerque Center
Sat 22:24:32 35.0478 -109.4286 226° Southwest 475 880 34.000 -49 Descending Albuquerque Center
Sat 22:25:33 34.9583 -109.5364 225° Southwest 472 874 34.000  Level Albuquerque Center
Sat 22:26:34 34.8692 -109.6497 226° Southwest 479 887 34.000  Level Albuquerque Center
Sat 22:27:34 34.7658 -109.7828 227° Southwest 483 895 34.000  Level Albuquerque Center
Sat 22:28:35 34.6889 -109.9081 233° Southwest 484 896 34.000  Level Albuquerque Center
Sat 22:29:36 34.6375 -110.0508 246° West 483 895 34.000  Level Albuquerque Center
Sat 22:30:37 34.5789 -110.2222 247° West 489 906 34.000 -49 Level Albuquerque Center
Sat 22:31:38 34.5200 -110.3567 242° Southwest 475 880 33.900 -1.091 Descending Albuquerque Center
Sat 22:32:38 34.4678 -110.5147 248° West 486 900 31.800 -2.182 Descending Albuquerque Center
Sat 22:33:39 34.4128 -110.6556 245° Southwest 470 871 29.500 -2.213 Descending Albuquerque Center
Sat 22:34:40 34.3553 -110.7894 243° Southwest 455 843 27.300 -2.164 Descending Albuquerque Center
Sat 22:35:41 34.2739 -110.9011 229° Southwest 441 816 25.100 -2.182 Descending Albuquerque Center
Sat 22:36:41 34.1933 -111.0053 227° Southwest 429 795 22.900 -2.033 Descending Albuquerque Center
Sat 22:37:42 34.1175 -111.1028 227° Southwest 408 756 21.000 -1.918 Descending Albuquerque Center
Sat 22:38:43 34.0442 -111.1958 226° Southwest 389 721 19.000 -1.918 Descending Albuquerque Center
Sat 22:39:44 33.9739 -111.2864 227° Southwest 375 695 17.100 -1.770 Descending Albuquerque Center
Sat 22:40:45 33.9044 -111.3758 227° Southwest 366 678 15.400 -1.438 Descending Albuquerque Center
Sat 22:41:45 33.8478 -111.4683 234° Southwest 344 637 14.200 -1.438 Descending Albuquerque Center
Sat 22:42:46 33.7986 -111.5633 238° Southwest 335 621 12.500 -1.672 Descending Albuquerque Center
Sat 22:43:47 33.7494 -111.6564 238° Southwest 329 610 10.800 -1.230 Descending Albuquerque Center
Sat 22:44:48 33.7017 -111.7461 237° Southwest 320 592 10.000 -595 Descending Albuquerque Center
Sat 22:45:48 33.6544 -111.8314 236° Southwest 310 575 9.600 -496 Descending Albuquerque Center
Sat 22:46:49 33.6122 -111.9094 237° Southwest 287 531 9.000 -590 Descending Albuquerque Center
Sat 22:47:50 33.5744 -111.9814 238° Southwest 262 486 8.400 -885 Descending Albuquerque Center
Sat 22:48:51 33.5356 -112.0539 237° Southwest 257 476 7.200 -1.041 Descending Albuquerque Center
Sat 22:49:51 33.5269 -112.1350 263° West 253 468 6.300 -942 Descending Albuquerque Center
Sat 22:50:52 33.4869 -112.1806 224° Southwest 234 433 5.300 -836 Descending Albuquerque Center
Sat 22:51:53 33.4322 -112.1500 155° Southeast 224 415 4.600 -1.377 Descending Albuquerque Center
Sat 22:52:54 33.4325 -112.0900 90° East 174 322 2.500 -1.587 Descending Albuquerque Center
Sat 22:53:54 33.4328 -112.0417 90° East 158 293 1.400 -744 Descending Albuquerque Center
Sat 22:54:55 33.4322 -111.9972 91° East 153 283 1.000 -393 Descending Albuquerque Center

Login

Don't have an account? Register now (free) for customized features, flight alerts, and more!